createdAt,value
2022-11-12T00:00:47.219Z,78188.59
2022-11-12T00:04:48.805Z,78236.34
2022-11-12T00:08:50.399Z,78230.13
2022-11-12T00:12:53.834Z,78221.81
2022-11-12T00:16:55.492Z,78225.97
2022-11-12T00:20:57.056Z,78234.28
2022-11-12T00:24:58.901Z,78252.97
2022-11-12T00:29:01.911Z,78261.28
2022-11-12T00:33:04.110Z,78259.22
2022-11-12T00:37:05.956Z,78252.97
2022-11-12T00:41:07.765Z,78275.81
2022-11-12T00:45:11.019Z,78271.69
2022-11-12T00:49:13.090Z,78261.28
2022-11-12T00:53:14.653Z,78255.06
2022-11-12T00:57:16.610Z,78286.22
2022-11-12T01:01:20.092Z,78279.97
2022-11-12T01:05:21.942Z,78304.91
2022-11-12T01:09:23.471Z,78302.84
2022-11-12T01:13:26.153Z,78296.59
2022-11-12T01:17:29.307Z,78321.53
2022-11-12T01:21:32.962Z,78319.44
2022-11-12T01:25:37.743Z,78311.13
2022-11-12T01:29:39.473Z,78290.38
2022-11-12T01:33:44.572Z,78306.97
2022-11-12T01:37:46.092Z,78334.00
2022-11-12T01:41:47.678Z,78331.91
2022-11-12T01:45:51.006Z,78348.53
2022-11-12T01:49:58.390Z,78350.59
2022-11-12T01:54:06.083Z,78338.16
2022-11-12T01:58:10.598Z,78350.59
2022-11-12T02:02:12.431Z,78352.69
2022-11-12T02:06:17.355Z,78354.75
2022-11-12T02:10:19.575Z,78350.59
2022-11-12T02:14:21.703Z,78354.75
2022-11-12T02:18:23.419Z,78352.69
2022-11-12T02:22:26.609Z,78342.31
2022-11-12T02:26:31.663Z,78356.84
2022-11-12T02:30:34.351Z,78352.69
2022-11-12T02:34:36.024Z,78365.16
2022-11-12T02:38:38.898Z,78365.16
2022-11-12T02:42:40.588Z,78375.53
2022-11-12T02:46:42.163Z,78369.31
2022-11-12T02:50:47.196Z,78369.31
2022-11-12T02:54:50.105Z,78381.75
2022-11-12T02:58:51.619Z,78369.31
2022-11-12T03:02:53.149Z,78358.91
2022-11-12T03:06:54.904Z,78356.84
2022-11-12T03:10:58.008Z,78363.06
2022-11-12T03:14:59.596Z,78371.38
2022-11-12T03:19:01.255Z,78356.84
2022-11-12T03:23:04.749Z,78371.38
2022-11-12T03:27:07.810Z,78371.38
2022-11-12T03:31:09.499Z,78379.69
2022-11-12T03:35:11.001Z,78373.47
2022-11-12T03:39:12.787Z,78371.38
2022-11-12T03:43:15.665Z,78367.22
2022-11-12T03:47:17.320Z,78383.84
2022-11-12T03:51:18.843Z,78373.47
2022-11-12T03:55:22.511Z,78375.53
2022-11-12T03:59:25.523Z,78394.22
2022-11-12T04:03:27.052Z,78404.63
2022-11-12T04:07:28.709Z,78408.78
2022-11-12T04:11:30.311Z,78390.06
2022-11-12T04:15:33.219Z,78406.69
2022-11-12T04:19:34.889Z,78400.47
2022-11-12T04:23:36.572Z,78419.16
2022-11-12T04:27:38.269Z,78423.31
2022-11-12T04:31:41.161Z,78410.84
2022-11-12T04:35:42.695Z,78394.22
2022-11-12T04:39:44.413Z,78385.91
2022-11-12T04:43:45.951Z,78388.00
2022-11-12T04:47:48.935Z,78402.53
2022-11-12T04:51:50.481Z,78396.31
2022-11-12T04:55:52.950Z,78394.22
2022-11-12T04:59:54.584Z,78417.09
2022-11-12T05:03:57.448Z,78421.22
2022-11-12T05:07:59.828Z,78417.09
2022-11-12T05:12:01.832Z,78400.47
2022-11-12T05:16:03.776Z,78419.16
2022-11-12T05:20:08.094Z,78421.22
2022-11-12T05:24:22.414Z,78421.22
2022-11-12T05:28:32.126Z,78412.94
2022-11-12T05:32:33.841Z,78417.09
2022-11-12T05:36:36.867Z,78412.94
2022-11-12T05:40:38.387Z,78406.69
2022-11-12T05:44:40.065Z,78406.69
2022-11-12T05:48:41.786Z,78427.47
2022-11-12T05:52:45.263Z,78437.84
2022-11-12T05:56:46.871Z,78450.31
2022-11-12T06:00:48.447Z,78454.47
2022-11-12T06:04:50.121Z,78448.25
2022-11-12T06:08:52.968Z,78479.41
